Glen Spey, New York
Current Conditions -  °F | °C
As of 5:35 AM on Friday 24 Oct 2014 (Local Time) from KMSV Reporting Station
Overcast Overcast  
Wind Chill: 40°   Ceiling: 1000
Heat Index: 45°   Visibility: 10mi
Dew Point: 43°   Wind: 9mph
Humidity: 93%   Direction: 310°NW
Pressure: 29.82"   Gusts: 18mph
Location:  41.48°N, 74.81°W
Report Text: KMSV 240935Z AUTO 31008G16KT 10SM OVC010 07/06 A2982 RMK AO1
Loading
Personal Weather Stations






























Interactive Weather Map
Tropical Storm Tracking
New forecast layout! Learn more

10-Day Weather Forecast

Advertisements
Track Severe Weather on mobile